Flugplatz Nördlingen (EDNO)

Hier findest Du alle Informationen zum Flugplatz Nördlingen (EDNO).

Informationen für Piloten zum Flugplatz Nördlingen

Hier findest Du alle relevanten Informationen, die Du als Pilot benötigst, um Nördlingen anzufliegen.

Flugplatz: Nördlingen ICAO-Code: EDNO
Frequenz Turm: 133,080 Mhz GAFOR Gebiet: 56
Frequenz Ground: 133,080 Mhz Mogas: ja
Platzrunde: NW 2100 ft Landegebühr: 6 € €
Platzhöhe: - Sunrise: 05:08 Uhr UTC
Pisten: 04/22 - 750 m x 15 m, ASPH Sunset: 17:10 Uhr UTC

Mitglieder, die in Nördlingen fliegen

Flugwetter am Flugplatz Nördlingen

Die METAR Information stammen aus EDMA (58.78 km entfernt).

METAR Code:
2020/09/04 17:20
EDMA 041720Z 06003KT CAVOK 22/17 Q1022

Temperatur: 13,5 °C Niederschlag: 1,6 mm (1h) Wind: 6,2 kt
Temperatur (min.): 12,8 °C Luftdruck: 1004 hPa Windrichtung: 217 °
Temperatur (max.): 13,9 °C Luftfeuchtigkeit: 89 % Bewölkung: 8/8

Flugschulen am Flugplatz Nördlingen

Am Flugplatz Nördlingen gibt es leider keine Flugschule.

Benachbarte Flugplätze und Flugschulen

Es gibt 23 weitere Flugplätze in einem Umkreis von 50 km um den Flugplatz Nördlingen.

Jetzt anmelden

Passwort vergessen

Umfrage Archiv

Wären Rettungsgeräte keine Pflicht mehr, würdet Ihr Euer UL trotzdem mit einem ausstatten?

Ja
85.6 %
Nein
14.4 %
Stimmen: 319 | Diskussion
Anzeige: Roland Aircraft
Statistik Alle Mitglieder

Aktuell sind 47 Besucher online.

Anzeige: VFR Sprechfunk Simulator


Anzeige: Pocket FMS